Tuesday, January 15, 2019, 6:29 PM EST
Back to Local

KVSF, Hartness State Airport

Location: Perkinsville, VT, United States Lat: 43.35
Local Time: 6:29 PM EST (23:29 GMT) Lon: -72.517
Time Zone: US/Eastern Elev: 577 ft

Show me the last for .
Show Decoded

2019-01-15 17:54 METAR KVSF 152254Z AUTO 00000KT 10SM SCT040 M03/M07 A3006 RMK AO2 SLP191
                 T10331072 =
2019-01-15 16:54 METAR KVSF 152154Z AUTO 08003KT 10SM OVC039 M02/M07 A3005 RMK AO2 SLP188
                 T10221072 =
2019-01-15 15:54 METAR KVSF 152054Z AUTO 00000KT 10SM OVC040 M02/M07 A3006 RMK AO2 SLP189
                 T10171072 56000 =
2019-01-15 14:54 METAR KVSF 151954Z AUTO VRB03KT 10SM OVC036 M02/M08 A3006 RMK AO2 SLP190
                 T10171078 =
2019-01-15 13:54 METAR KVSF 151854Z AUTO 32005KT 10SM OVC034 M02/M08 A3005 RMK AO2 SLP188
                 T10171078 =
2019-01-15 12:54 METAR KVSF 151754Z AUTO 30007KT 10SM OVC033 M02/M08 A3006 RMK AO2 SLP190
                 T10221078 11022 21139 58021 =
2019-01-15 11:54 METAR KVSF 151654Z AUTO 27008KT 10SM OVC039 M03/M09 A3008 RMK AO2 SLP196
                 T10281089 =
2019-01-15 10:54 METAR KVSF 151554Z AUTO 00000KT 10SM OVC035 M05/M09 A3011 RMK AO2 SLP208
                 T10501094 =
2019-01-15 09:54 METAR KVSF 151454Z AUTO 00000KT 10SM OVC030 M09/M11 A3012 RMK AO2 SLP210
                 T10891106 52007 =
2019-01-15 09:36 METAR KVSF 151436Z AUTO 00000KT 10SM OVC030 M09/M11 A3012 RMK AO2 T10941111 =
2019-01-15 08:54 METAR KVSF 151354Z AUTO 00000KT 10SM BKN025 OVC032 M11/M13 A3011 RMK AO2 SLP210
                 T11111128 =
2019-01-15 07:54 METAR KVSF 151254Z AUTO 00000KT 7SM OVC023 M13/M14 A3010 RMK AO2 SLP206
                 T11281139 =
2019-01-15 07:22 METAR KVSF 151222Z AUTO 00000KT 9SM BKN022 M14/M15 A3010 RMK AO2 T11391150 =
2019-01-15 06:54 METAR KVSF 151154Z AUTO 00000KT 8SM CLR M13/M15 A3010 RMK AO2 SLP204 I1000 I6000
                 T11331150 11122 21139 53008 =
2019-01-15 05:54 METAR KVSF 151054Z AUTO 00000KT 10SM CLR M13/M15 A3009 RMK AO2 SLP201 I1000
                 T11331150 =
2019-01-15 04:54 METAR KVSF 150954Z AUTO VRB03KT 10SM CLR M13/M14 A3008 RMK AO2 SLP197 I1000
                 T11331144 =
2019-01-15 03:54 METAR KVSF 150854Z AUTO 00000KT 10SM CLR M13/M14 A3007 RMK AO2 SLP195 I1000
                 I3000 T11281139 58004 =
2019-01-15 02:54 METAR KVSF 150754Z AUTO 00000KT 9SM CLR M13/M14 A3008 RMK AO2 SLP198 I1000
                 T11281139 =
2019-01-15 01:54 METAR KVSF 150654Z AUTO 00000KT 8SM CLR M13/M14 A3009 RMK AO2 SLP200 I1000
                 T11281139 =
2019-01-15 00:54 METAR KVSF 150554Z AUTO 00000KT 8SM CLR M12/M13 A3009 RMK AO2 SLP200 I1000 I6000
                 T11221133 11083 21122 58009 =
2019-01-14 23:54 METAR KVSF 150454Z AUTO 00000KT 5SM BR CLR M12/M13 A3010 RMK AO2 SLP205
                 T11171128 410441189 =
2019-01-14 22:54 METAR KVSF 150354Z AUTO 00000KT 9SM CLR M10/M12 A3011 RMK AO2 SLP210 T11001117 =
2019-01-14 21:54 METAR KVSF 150254Z AUTO 00000KT 10SM SCT120 M09/M11 A3011 RMK AO2 SLP210
                 T10891111 56008 =
2019-01-14 20:54 METAR KVSF 150154Z AUTO 00000KT 10SM CLR M09/M11 A3012 RMK AO2 SLP212 T10891111
                 =
2019-01-14 19:54 METAR KVSF 150054Z AUTO 00000KT 10SM CLR M09/M11 A3012 RMK AO2 SLP215 T10891111
                 =
2019-01-14 18:54 METAR KVSF 142354Z AUTO 00000KT 10SM CLR M08/M12 A3014 RMK AO2 SLP220 T10831117
                 11044 21083 56003 =

Support USWX by starting your Amazon purchase here.